createdAt,value
2018-06-18T00:02:12.413Z,16.40
2018-06-18T00:04:41.744Z,16.40
2018-06-18T00:07:10.985Z,16.40
2018-06-18T00:09:40.283Z,16.40
2018-06-18T00:12:09.572Z,16.40
2018-06-18T00:14:38.970Z,16.40
2018-06-18T00:17:08.197Z,16.40
2018-06-18T00:19:37.483Z,16.40
2018-06-18T00:22:11.231Z,16.40
2018-06-18T00:24:40.500Z,16.40
2018-06-18T00:27:09.863Z,16.40
2018-06-18T00:29:39.153Z,16.40
2018-06-18T00:32:08.563Z,16.40
2018-06-18T00:34:37.769Z,16.40
2018-06-18T00:37:07.297Z,16.40
2018-06-18T00:39:36.521Z,16.40
2018-06-18T00:42:06.029Z,16.30
2018-06-18T00:44:35.293Z,16.30
2018-06-18T00:47:04.552Z,16.30
2018-06-18T00:49:33.790Z,16.30
2018-06-18T00:52:03.066Z,16.30
2018-06-18T00:54:32.354Z,16.30
2018-06-18T00:57:01.657Z,16.30
2018-06-18T00:59:30.924Z,16.30
2018-06-18T01:02:00.249Z,16.30
2018-06-18T01:04:29.645Z,16.20
2018-06-18T01:06:59.018Z,16.20
2018-06-18T01:09:28.274Z,16.20
2018-06-18T01:11:57.554Z,16.20
2018-06-18T01:14:26.894Z,16.10
2018-06-18T01:16:56.169Z,16.10
2018-06-18T01:19:25.497Z,16.10
2018-06-18T01:21:54.774Z,16.10
2018-06-18T01:25:01.372Z,16.10
2018-06-18T01:27:30.710Z,16.10
2018-06-18T01:29:59.999Z,16.00
2018-06-18T01:32:29.318Z,16.00
2018-06-18T01:34:58.549Z,16.00
2018-06-18T01:37:27.874Z,16.00
2018-06-18T01:39:57.193Z,16.00
2018-06-18T01:42:27.476Z,16.00
2018-06-18T01:44:56.722Z,15.90
2018-06-18T01:47:25.989Z,15.90
2018-06-18T01:49:55.256Z,15.90
2018-06-18T01:52:24.547Z,15.90
2018-06-18T01:54:53.936Z,15.90
2018-06-18T01:57:23.222Z,15.80
2018-06-18T01:59:52.437Z,15.80
2018-06-18T02:02:21.623Z,15.80
2018-06-18T02:04:50.936Z,15.80
2018-06-18T02:07:20.187Z,15.80
2018-06-18T02:09:49.428Z,15.80
2018-06-18T02:12:18.731Z,15.80
2018-06-18T02:14:48.019Z,15.80
2018-06-18T02:17:17.425Z,15.80
2018-06-18T02:19:46.700Z,15.80
2018-06-18T02:22:15.982Z,15.90
2018-06-18T02:24:45.225Z,15.80
2018-06-18T02:27:18.354Z,15.80
2018-06-18T02:29:52.809Z,15.70
2018-06-18T02:32:27.206Z,15.60
2018-06-18T02:35:01.961Z,15.60
2018-06-18T02:37:36.416Z,15.50
2018-06-18T02:40:10.816Z,15.50
2018-06-18T02:42:40.124Z,15.40
2018-06-18T02:45:09.440Z,15.40
2018-06-18T02:47:38.678Z,15.30
2018-06-18T02:50:07.931Z,15.30
2018-06-18T02:52:37.204Z,15.30
2018-06-18T02:55:07.084Z,15.20
2018-06-18T02:57:36.555Z,15.20
2018-06-18T03:00:06.409Z,15.20
2018-06-18T03:02:35.687Z,15.10
2018-06-18T03:05:05.027Z,15.10
2018-06-18T03:07:34.371Z,15.10
2018-06-18T03:10:03.673Z,15.10
2018-06-18T03:12:32.950Z,15.10
2018-06-18T03:15:02.253Z,15.00
2018-06-18T03:17:31.529Z,15.00
2018-06-18T03:20:06.107Z,15.00
2018-06-18T03:22:40.833Z,15.00
2018-06-18T03:25:15.287Z,15.00
2018-06-18T03:27:49.871Z,15.00
2018-06-18T03:30:19.244Z,15.00
2018-06-18T03:32:49.244Z,15.10
2018-06-18T03:35:18.442Z,15.00
2018-06-18T03:37:47.899Z,15.00
2018-06-18T03:40:17.108Z,15.00
2018-06-18T03:42:47.367Z,15.00
2018-06-18T03:45:20.448Z,15.00
2018-06-18T03:47:49.693Z,15.00
2018-06-18T03:50:18.999Z,14.90
2018-06-18T03:52:48.273Z,14.90
2018-06-18T03:55:22.757Z,14.90
2018-06-18T03:57:52.111Z,14.80
2018-06-18T04:00:21.478Z,14.80
2018-06-18T04:02:58.948Z,14.70
2018-06-18T04:05:34.631Z,14.70
2018-06-18T04:08:10.169Z,14.70
2018-06-18T04:10:44.973Z,14.70
2018-06-18T04:13:14.239Z,14.70
2018-06-18T04:15:44.504Z,14.70
2018-06-18T04:18:13.813Z,14.80
2018-06-18T04:20:46.272Z,14.80
2018-06-18T04:23:15.580Z,14.90
2018-06-18T04:25:45.091Z,15.00
2018-06-18T04:28:14.408Z,15.10
2018-06-18T04:30:45.124Z,15.20
2018-06-18T04:33:17.232Z,15.30
2018-06-18T04:35:46.502Z,15.40
2018-06-18T04:38:15.896Z,15.40
2018-06-18T04:40:45.146Z,15.60
2018-06-18T04:43:20.037Z,15.70
2018-06-18T04:45:54.671Z,15.80
2018-06-18T04:48:29.260Z,16.00
2018-06-18T04:51:00.296Z,16.20
2018-06-18T04:53:29.922Z,16.40
2018-06-18T04:55:59.190Z,16.60
2018-06-18T04:58:28.490Z,16.90
2018-06-18T05:01:04.506Z,17.20
2018-06-18T05:03:33.725Z,17.40
2018-06-18T05:06:03.027Z,17.60
2018-06-18T05:08:41.376Z,17.60
2018-06-18T05:11:10.607Z,17.60
2018-06-18T05:13:39.900Z,17.70
2018-06-18T05:16:09.140Z,17.90
2018-06-18T05:18:38.381Z,18.10
2018-06-18T05:21:07.656Z,18.30
2018-06-18T05:23:36.934Z,18.60
2018-06-18T05:26:06.277Z,18.80
2018-06-18T05:28:35.564Z,19.10
2018-06-18T05:31:04.854Z,19.40
2018-06-18T05:33:34.132Z,19.80
2018-06-18T05:36:03.402Z,20.20
2018-06-18T05:38:34.071Z,20.70
2018-06-18T05:41:03.384Z,21.10
2018-06-18T05:43:33.061Z,21.50
2018-06-18T05:46:02.268Z,21.50
2018-06-18T05:48:31.566Z,21.40
2018-06-18T05:51:01.125Z,21.30
2018-06-18T05:53:30.473Z,21.40
2018-06-18T05:55:59.696Z,21.40
2018-06-18T05:58:28.955Z,21.60
2018-06-18T06:00:58.222Z,21.80
2018-06-18T06:03:27.437Z,22.10
2018-06-18T06:05:56.758Z,22.30
2018-06-18T06:08:25.997Z,22.40
2018-06-18T06:10:55.229Z,22.70
2018-06-18T06:13:24.443Z,23.20
2018-06-18T06:15:53.649Z,23.60
2018-06-18T06:18:22.855Z,24.00
2018-06-18T06:20:56.915Z,24.40
2018-06-18T06:23:26.144Z,24.90
2018-06-18T06:25:55.319Z,25.50
2018-06-18T06:28:24.716Z,26.20
2018-06-18T06:30:54.214Z,26.50
2018-06-18T06:33:24.608Z,26.40
2018-06-18T06:35:54.648Z,26.00
2018-06-18T06:38:23.923Z,25.50
2018-06-18T06:40:53.188Z,25.10
2018-06-18T06:43:22.525Z,24.80
2018-06-18T06:45:51.805Z,24.50
2018-06-18T06:48:21.084Z,24.10
2018-06-18T06:50:50.357Z,23.70
2018-06-18T06:53:19.652Z,23.40
2018-06-18T06:55:48.960Z,23.30
2018-06-18T06:58:18.219Z,23.20
2018-06-18T07:00:47.599Z,23.20
2018-06-18T07:03:16.900Z,23.00
2018-06-18T07:05:46.256Z,22.90
2018-06-18T07:08:16.067Z,22.70
2018-06-18T07:10:45.912Z,22.60
2018-06-18T07:13:15.230Z,22.60
2018-06-18T07:15:44.431Z,22.70
2018-06-18T07:18:13.695Z,23.00
2018-06-18T07:20:45.109Z,23.40
2018-06-18T07:23:14.455Z,23.80
2018-06-18T07:25:44.322Z,24.30
2018-06-18T07:28:13.669Z,24.80
2018-06-18T07:30:43.000Z,25.40
2018-06-18T07:33:13.384Z,25.80
2018-06-18T07:35:42.782Z,26.40
2018-06-18T07:38:12.040Z,26.80
2018-06-18T07:40:42.317Z,27.00
2018-06-18T07:43:12.109Z,26.70
2018-06-18T07:45:41.933Z,26.40
2018-06-18T07:48:11.156Z,26.30
2018-06-18T07:50:40.514Z,26.50
2018-06-18T07:53:09.775Z,27.00
2018-06-18T07:55:39.121Z,28.10
2018-06-18T07:58:08.458Z,29.20
2018-06-18T08:00:37.809Z,30.00
2018-06-18T08:03:07.145Z,30.30
2018-06-18T08:05:36.391Z,30.40
2018-06-18T08:08:05.835Z,29.80
2018-06-18T08:10:35.185Z,29.40
2018-06-18T08:13:04.447Z,29.30
2018-06-18T08:15:33.744Z,29.40
2018-06-18T08:18:03.033Z,29.30
2018-06-18T08:20:32.311Z,29.10
2018-06-18T08:23:01.587Z,28.80
2018-06-18T08:25:30.909Z,28.50
2018-06-18T08:28:00.216Z,28.10
2018-06-18T08:30:29.556Z,27.80
2018-06-18T08:32:58.928Z,27.40
2018-06-18T08:35:28.236Z,27.10
2018-06-18T08:37:57.459Z,27.10
2018-06-18T08:40:26.781Z,27.10
2018-06-18T08:42:56.226Z,27.40
2018-06-18T08:45:25.485Z,27.60
2018-06-18T08:47:54.843Z,27.60
2018-06-18T08:50:29.405Z,27.50
2018-06-18T08:53:03.754Z,27.60
2018-06-18T08:55:38.389Z,27.70
2018-06-18T08:58:13.042Z,27.60
2018-06-18T09:00:47.396Z,28.00
2018-06-18T09:03:21.901Z,28.80
2018-06-18T09:05:55.389Z,29.70
2018-06-18T09:08:29.893Z,30.80
2018-06-18T09:10:59.760Z,31.20
2018-06-18T09:13:29.159Z,31.60
2018-06-18T09:15:58.463Z,31.20
2018-06-18T09:18:27.748Z,30.90
2018-06-18T09:20:57.109Z,31.00
2018-06-18T09:23:26.363Z,31.70
2018-06-18T09:26:16.294Z,32.10
2018-06-18T09:28:45.527Z,31.30
2018-06-18T09:31:14.816Z,31.30
2018-06-18T09:33:44.792Z,32.30
2018-06-18T09:36:14.272Z,33.10
2018-06-18T09:38:43.568Z,33.00
2018-06-18T09:41:12.852Z,32.30
2018-06-18T09:43:42.195Z,31.90
2018-06-18T09:46:11.439Z,32.40
2018-06-18T09:48:45.963Z,32.90
2018-06-18T09:51:20.603Z,33.10
2018-06-18T09:53:55.070Z,33.00
2018-06-18T09:56:29.655Z,32.70
2018-06-18T09:59:04.369Z,32.70
2018-06-18T10:01:34.233Z,33.10
2018-06-18T10:04:04.712Z,33.60
2018-06-18T10:06:36.535Z,34.00
2018-06-18T10:09:08.754Z,34.10
2018-06-18T10:11:38.144Z,34.00
2018-06-18T10:14:09.045Z,33.90
2018-06-18T10:16:38.359Z,33.80
2018-06-18T10:19:07.553Z,33.70
2018-06-18T10:21:36.774Z,33.30
2018-06-18T10:24:06.121Z,32.80
2018-06-18T10:26:35.381Z,32.70
2018-06-18T10:29:04.693Z,32.40
2018-06-18T10:31:34.113Z,32.50
2018-06-18T10:34:08.652Z,33.30
2018-06-18T10:36:43.093Z,34.20
2018-06-18T10:39:18.331Z,34.50
2018-06-18T10:41:52.824Z,33.70
2018-06-18T10:44:22.284Z,32.80
2018-06-18T10:46:51.568Z,32.10
2018-06-18T10:49:20.832Z,31.40
2018-06-18T10:51:50.107Z,31.10
2018-06-18T10:54:19.389Z,30.90
2018-06-18T10:56:48.739Z,30.30
2018-06-18T10:59:17.960Z,29.80
2018-06-18T11:01:47.273Z,29.60
2018-06-18T11:04:21.690Z,29.70
2018-06-18T11:06:51.025Z,30.20
2018-06-18T11:09:22.228Z,30.80
2018-06-18T11:11:52.258Z,31.00
2018-06-18T11:14:21.559Z,31.30
2018-06-18T11:16:56.271Z,32.10
2018-06-18T11:19:30.657Z,32.50
2018-06-18T11:22:06.253Z,32.40
2018-06-18T11:24:40.727Z,31.90
2018-06-18T11:27:10.904Z,31.90
2018-06-18T11:29:40.295Z,31.60
2018-06-18T11:32:09.694Z,31.10
2018-06-18T11:34:39.003Z,30.70
2018-06-18T11:37:14.644Z,30.20
2018-06-18T11:39:51.520Z,29.70
2018-06-18T11:42:25.124Z,29.40
2018-06-18T11:45:01.342Z,29.20
2018-06-18T11:47:31.655Z,29.20
2018-06-18T11:50:09.221Z,29.20
2018-06-18T11:52:44.747Z,29.20
2018-06-18T11:55:15.966Z,30.00
2018-06-18T11:57:51.542Z,30.70
2018-06-18T12:00:28.164Z,31.20
2018-06-18T12:03:04.439Z,31.60
2018-06-18T12:05:40.059Z,31.40
2018-06-18T12:08:15.580Z,30.50
2018-06-18T12:10:47.113Z,30.60
2018-06-18T12:13:20.550Z,30.80
2018-06-18T12:15:49.951Z,30.70
2018-06-18T12:18:19.203Z,30.40
2018-06-18T12:20:48.510Z,30.10
2018-06-18T12:23:17.924Z,30.10
2018-06-18T12:25:51.276Z,30.20
2018-06-18T12:28:28.851Z,29.90
2018-06-18T12:30:58.813Z,29.60
2018-06-18T12:33:28.110Z,29.40
2018-06-18T12:35:57.502Z,29.10
2018-06-18T12:38:26.890Z,28.60
2018-06-18T12:40:56.140Z,28.30
2018-06-18T12:43:27.616Z,28.30
2018-06-18T12:46:02.173Z,28.30
2018-06-18T12:48:36.802Z,28.30
2018-06-18T12:51:11.359Z,28.20
2018-06-18T12:53:45.986Z,28.10
2018-06-18T12:56:20.694Z,28.00
2018-06-18T12:58:51.509Z,27.80
2018-06-18T13:01:22.868Z,27.70
2018-06-18T13:03:52.302Z,27.70
2018-06-18T13:06:22.767Z,27.80
2018-06-18T13:08:52.073Z,27.90
2018-06-18T13:11:21.506Z,28.00
2018-06-18T13:13:50.948Z,28.30
2018-06-18T13:16:21.987Z,28.40
2018-06-18T13:18:51.283Z,28.50
2018-06-18T13:21:20.793Z,28.40
2018-06-18T13:23:50.011Z,28.30
2018-06-18T13:26:19.277Z,28.20
2018-06-18T13:28:48.827Z,28.00
2018-06-18T13:31:18.347Z,27.90
2018-06-18T13:33:47.822Z,27.90
2018-06-18T13:36:17.374Z,28.00
2018-06-18T13:38:51.762Z,28.30
2018-06-18T13:41:26.123Z,28.90
2018-06-18T13:44:00.700Z,29.20
2018-06-18T13:46:35.044Z,29.30
2018-06-18T13:49:07.585Z,29.00
2018-06-18T13:51:38.525Z,28.60
2018-06-18T13:54:08.121Z,28.20
2018-06-18T13:56:37.810Z,28.00
2018-06-18T13:59:07.448Z,28.10
2018-06-18T14:01:36.783Z,28.50
2018-06-18T14:04:06.282Z,28.70
2018-06-18T14:06:36.264Z,29.20
2018-06-18T14:09:07.010Z,29.60
2018-06-18T14:11:36.663Z,29.80
2018-06-18T14:14:06.724Z,29.60
2018-06-18T14:16:36.221Z,28.80
2018-06-18T14:19:10.927Z,28.20
2018-06-18T14:21:40.252Z,28.00
2018-06-18T14:24:09.628Z,27.80
2018-06-18T14:26:39.346Z,27.70
2018-06-18T14:29:12.876Z,27.50
2018-06-18T14:31:47.484Z,27.30
2018-06-18T14:34:22.099Z,27.10
2018-06-18T14:36:56.507Z,26.80
2018-06-18T14:39:46.624Z,26.60
2018-06-18T14:42:16.136Z,26.40
2018-06-18T14:44:45.359Z,26.30
2018-06-18T14:47:16.357Z,26.20
2018-06-18T14:49:45.814Z,26.10
2018-06-18T14:52:15.303Z,26.10
2018-06-18T14:54:46.091Z,26.00
2018-06-18T14:57:15.679Z,26.00
2018-06-18T14:59:53.584Z,26.00
2018-06-18T15:02:23.663Z,25.90
2018-06-18T15:04:53.605Z,25.90
2018-06-18T15:07:23.559Z,26.00
2018-06-18T15:09:52.921Z,26.10
2018-06-18T15:12:24.514Z,26.10
2018-06-18T15:14:59.098Z,26.10
2018-06-18T15:17:28.416Z,25.90
2018-06-18T15:19:58.432Z,25.90
2018-06-18T15:22:29.701Z,26.00
2018-06-18T15:25:04.987Z,26.30
2018-06-18T15:27:35.118Z,26.40
2018-06-18T15:30:04.900Z,26.50
2018-06-18T15:32:34.311Z,26.40
2018-06-18T15:35:05.539Z,26.20
2018-06-18T15:37:34.916Z,26.00
2018-06-18T15:40:04.484Z,25.80
2018-06-18T15:42:33.877Z,25.70
2018-06-18T15:45:03.510Z,25.60
2018-06-18T15:47:33.196Z,25.60
2018-06-18T15:50:03.301Z,25.60
2018-06-18T15:52:32.656Z,25.60
2018-06-18T15:55:02.165Z,25.40
2018-06-18T15:57:31.671Z,25.30
2018-06-18T16:00:01.336Z,25.20
2018-06-18T16:02:30.619Z,25.00
2018-06-18T16:04:59.903Z,24.90
2018-06-18T16:07:29.191Z,24.90
2018-06-18T16:09:58.534Z,24.80
2018-06-18T16:12:27.759Z,24.80
2018-06-18T16:14:57.074Z,24.80
2018-06-18T16:17:26.452Z,24.90
2018-06-18T16:19:55.689Z,25.10
2018-06-18T16:22:25.109Z,25.20
2018-06-18T16:24:54.591Z,25.30
2018-06-18T16:27:23.896Z,25.40
2018-06-18T16:29:53.169Z,25.60
2018-06-18T16:32:22.442Z,25.70
2018-06-18T16:34:51.731Z,25.70
2018-06-18T16:37:21.870Z,25.70
2018-06-18T16:39:51.052Z,25.70
2018-06-18T16:42:20.346Z,25.60
2018-06-18T16:44:49.627Z,25.50
2018-06-18T16:47:18.969Z,25.40
2018-06-18T16:49:48.496Z,25.40
2018-06-18T16:52:17.823Z,25.40
2018-06-18T16:54:47.183Z,25.40
2018-06-18T16:57:16.672Z,25.40
2018-06-18T16:59:46.036Z,25.40
2018-06-18T17:02:15.419Z,25.30
2018-06-18T17:04:44.669Z,25.30
2018-06-18T17:07:15.183Z,25.20
2018-06-18T17:09:49.322Z,25.10
2018-06-18T17:12:19.892Z,25.00
2018-06-18T17:14:49.803Z,24.90
2018-06-18T17:17:20.741Z,24.80
2018-06-18T17:19:54.948Z,24.80
2018-06-18T17:22:24.831Z,24.60
2018-06-18T17:24:54.674Z,24.60
2018-06-18T17:27:25.043Z,24.50
2018-06-18T17:29:57.035Z,24.50
2018-06-18T17:32:26.832Z,24.30
2018-06-18T17:34:56.271Z,24.20
2018-06-18T17:37:27.184Z,24.10
2018-06-18T17:39:56.444Z,24.00
2018-06-18T17:42:25.817Z,23.80
2018-06-18T17:44:55.036Z,23.80
2018-06-18T17:47:24.335Z,23.70
2018-06-18T17:49:54.876Z,23.60
2018-06-18T17:52:24.359Z,23.50
2018-06-18T17:54:54.153Z,23.50
2018-06-18T17:57:23.575Z,23.50
2018-06-18T17:59:53.439Z,23.50
2018-06-18T18:02:22.886Z,23.50
2018-06-18T18:04:57.361Z,23.40
2018-06-18T18:07:28.791Z,23.30
2018-06-18T18:09:59.337Z,23.20
2018-06-18T18:12:28.754Z,23.20
2018-06-18T18:14:58.807Z,23.10
2018-06-18T18:17:29.017Z,23.00
2018-06-18T18:19:58.630Z,23.00
2018-06-18T18:22:28.574Z,22.90
2018-06-18T18:24:57.941Z,22.90
2018-06-18T18:27:39.964Z,22.80
2018-06-18T18:30:16.127Z,22.80
2018-06-18T18:33:03.170Z,22.70
2018-06-18T18:35:40.070Z,22.60
2018-06-18T18:38:15.131Z,22.60
2018-06-18T18:40:48.630Z,22.60
2018-06-18T18:43:22.514Z,22.50
2018-06-18T18:45:55.336Z,22.40
2018-06-18T18:48:31.067Z,22.40
2018-06-18T18:51:02.959Z,22.40
2018-06-18T18:53:33.757Z,22.30
2018-06-18T18:56:15.961Z,22.30
2018-06-18T18:59:00.618Z,22.20
2018-06-18T19:01:34.294Z,22.20
2018-06-18T19:04:07.590Z,22.20
2018-06-18T19:06:40.915Z,22.10
2018-06-18T19:09:12.860Z,22.10
2018-06-18T19:11:43.523Z,22.00
2018-06-18T19:14:15.293Z,22.00
2018-06-18T19:16:47.540Z,21.90
2018-06-18T19:19:21.846Z,21.50
2018-06-18T19:21:57.325Z,21.00
2018-06-18T19:24:38.369Z,20.50
2018-06-18T19:27:08.321Z,20.30
2018-06-18T19:29:38.933Z,20.00
2018-06-18T19:32:09.200Z,19.90
2018-06-18T19:34:40.072Z,19.80
2018-06-18T19:37:13.164Z,19.70
2018-06-18T19:39:50.557Z,19.70
2018-06-18T19:42:24.177Z,19.60
2018-06-18T19:44:57.236Z,19.60
2018-06-18T19:47:39.009Z,19.50
2018-06-18T19:50:09.915Z,19.50
2018-06-18T19:52:40.704Z,19.50
2018-06-18T19:55:14.948Z,19.40
2018-06-18T19:57:45.423Z,19.40
2018-06-18T20:00:15.756Z,19.40
2018-06-18T20:02:48.079Z,19.30
2018-06-18T20:05:17.777Z,19.30
2018-06-18T20:07:54.014Z,19.20
2018-06-18T20:10:25.377Z,19.20
2018-06-18T20:12:56.250Z,19.10
2018-06-18T20:15:27.472Z,19.10
2018-06-18T20:17:58.273Z,19.00
2018-06-18T20:20:31.367Z,18.90
2018-06-18T20:23:05.082Z,18.90
2018-06-18T20:25:39.456Z,18.80
2018-06-18T20:28:09.576Z,18.70
2018-06-18T20:30:45.462Z,18.70
2018-06-18T20:33:16.914Z,18.70
2018-06-18T20:35:56.982Z,18.70
2018-06-18T20:38:26.773Z,18.60
2018-06-18T20:40:57.991Z,18.60
2018-06-18T20:44:35.168Z,18.60
2018-06-18T20:47:04.811Z,18.60
2018-06-18T20:49:34.117Z,18.60
2018-06-18T20:52:04.777Z,18.50
2018-06-18T20:54:34.196Z,18.50
2018-06-18T20:57:03.783Z,18.50
2018-06-18T20:59:33.182Z,18.40
2018-06-18T21:02:02.652Z,18.50
2018-06-18T21:04:32.392Z,18.50
2018-06-18T21:07:02.995Z,18.50
2018-06-18T21:09:32.419Z,18.50
2018-06-18T21:12:01.877Z,18.50
2018-06-18T21:14:31.282Z,18.50
2018-06-18T21:17:00.635Z,18.50
2018-06-18T21:19:29.958Z,18.50
2018-06-18T21:21:59.331Z,18.50
2018-06-18T21:24:28.612Z,18.40
2018-06-18T21:26:57.988Z,18.40
2018-06-18T21:29:27.356Z,18.40
2018-06-18T21:31:56.695Z,18.30
2018-06-18T21:34:25.961Z,18.30
2018-06-18T21:36:55.368Z,18.20
2018-06-18T21:39:24.608Z,18.20
2018-06-18T21:41:53.958Z,18.10
2018-06-18T21:44:29.181Z,18.00
2018-06-18T21:46:58.499Z,18.00
2018-06-18T21:49:27.980Z,17.90
2018-06-18T21:51:57.488Z,17.90
2018-06-18T21:54:26.791Z,17.90
2018-06-18T21:56:56.168Z,17.90
2018-06-18T21:59:25.497Z,17.80
2018-06-18T22:01:54.782Z,17.80
2018-06-18T22:04:24.036Z,17.70
2018-06-18T22:06:53.331Z,17.70
2018-06-18T22:09:22.920Z,17.70
2018-06-18T22:11:53.878Z,17.70
2018-06-18T22:14:24.027Z,17.60
2018-06-18T22:16:53.440Z,17.70
2018-06-18T22:19:22.660Z,17.70
2018-06-18T22:21:51.995Z,17.70
2018-06-18T22:24:21.312Z,17.80
2018-06-18T22:26:50.649Z,17.70
2018-06-18T22:29:19.904Z,17.70
2018-06-18T22:31:49.199Z,17.70
2018-06-18T22:34:18.478Z,17.70
2018-06-18T22:36:47.785Z,17.70
2018-06-18T22:39:17.083Z,17.60
2018-06-18T22:41:46.380Z,17.60
2018-06-18T22:44:15.662Z,17.60
2018-06-18T22:46:44.955Z,17.50
2018-06-18T22:49:14.264Z,17.50
2018-06-18T22:51:43.552Z,17.50
2018-06-18T22:54:12.852Z,17.50
2018-06-18T22:56:42.219Z,17.50
2018-06-18T22:59:11.534Z,17.50
2018-06-18T23:01:40.972Z,17.60
2018-06-18T23:04:10.268Z,17.60
2018-06-18T23:06:39.480Z,17.60
2018-06-18T23:09:10.665Z,17.60
2018-06-18T23:11:40.068Z,17.50
2018-06-18T23:14:12.220Z,17.50
2018-06-18T23:16:41.504Z,17.50
2018-06-18T23:19:10.781Z,17.40
2018-06-18T23:21:40.497Z,17.40
2018-06-18T23:24:09.717Z,17.40
2018-06-18T23:26:39.231Z,17.30
2018-06-18T23:29:11.304Z,17.30
2018-06-18T23:31:40.589Z,17.30
2018-06-18T23:34:09.982Z,17.40
2018-06-18T23:36:39.284Z,17.40
2018-06-18T23:39:09.945Z,17.40
2018-06-18T23:41:45.814Z,17.40
2018-06-18T23:44:15.120Z,17.40
2018-06-18T23:46:44.415Z,17.40
2018-06-18T23:49:13.743Z,17.40
2018-06-18T23:51:42.983Z,17.30
2018-06-18T23:56:41.950Z,17.30
2018-06-18T23:59:11.308Z,17.20
